Time;durP1;ratioP1;P1;durP2;ratioP2;P2;SDS_P1;SDS_P2;PMS_P1;PMS_P2;Temp;Humidity;BMP_temperature;BMP_pressure;BME280_temperature;BME280_humidity;BME280_pressure;Samples;Min_cycle;Max_cycle;Signal;HPM_P1;HPM_P2
2023/10/31 00:01:49;;;;;;;7.65;4.32;;;;;;;13.15;99.39;98758.56;7391366;19;20377;-74
2023/10/31 00:04:16;;;;;;;8.80;4.03;;;;;;;13.12;99.89;98753.72;7389868;19;20706;-74
2023/10/31 00:06:43;;;;;;;7.00;4.05;;;;;;;13.10;100.00;98759.28;7394276;19;20817;-74
2023/10/31 00:09:10;;;;;;;7.70;4.77;;;;;;;13.09;100.00;98764.84;7392766;19;20788;-74
2023/10/31 00:11:37;;;;;;;6.18;4.45;;;;;;;13.08;100.00;98753.38;7391807;19;20457;-74
2023/10/31 00:14:04;;;;;;;8.40;4.45;;;;;;;13.10;100.00;98751.28;7389040;19;20709;-74
2023/10/31 00:16:51;;;;;;;7.87;4.50;;;;;;;13.12;100.00;98743.88;7396651;19;20392;-74
2023/10/31 00:19:19;;;;;;;5.80;4.50;;;;;;;13.12;100.00;98748.41;7388482;19;20722;-74
2023/10/31 00:21:45;;;;;;;8.07;4.63;;;;;;;13.13;99.93;98750.81;7388746;19;20963;-74
2023/10/31 00:24:12;;;;;;;7.78;4.35;;;;;;;13.17;99.94;98743.16;7391673;19;20752;-74
2023/10/31 00:26:39;;;;;;;5.90;4.20;;;;;;;13.18;100.00;98736.78;7391569;19;20360;-74
2023/10/31 00:29:06;;;;;;;6.55;4.30;;;;;;;13.20;100.00;98740.03;7393636;19;20697;-74
2023/10/31 00:31:34;;;;;;;7.57;4.03;;;;;;;13.21;100.00;98741.63;7388195;19;20369;-74
2023/10/31 00:34:02;;;;;;;5.57;3.72;;;;;;;13.21;99.92;98741.63;7395487;19;20337;-74
2023/10/31 00:36:29;;;;;;;5.07;3.60;;;;;;;13.21;100.00;98742.44;7391471;19;20380;-74
2023/10/31 00:38:55;;;;;;;5.65;3.28;;;;;;;13.22;100.00;98743.25;7393289;19;20377;-74
2023/10/31 00:41:22;;;;;;;4.72;3.50;;;;;;;13.22;100.00;98743.25;7383844;19;20357;-73
2023/10/31 00:43:49;;;;;;;6.40;3.53;;;;;;;13.22;100.00;98738.72;7390026;19;20521;-73
2023/10/31 00:46:16;;;;;;;5.95;3.45;;;;;;;13.23;100.00;98739.53;7392600;19;20444;-74
2023/10/31 00:48:43;;;;;;;5.75;3.42;;;;;;;13.23;100.00;98742.19;7389929;19;20344;-74
2023/10/31 00:51:10;;;;;;;6.45;3.72;;;;;;;13.24;100.00;98741.16;7389601;19;20892;-74
2023/10/31 00:53:36;;;;;;;5.70;3.30;;;;;;;13.23;100.00;98735.00;7392355;19;20722;-74
2023/10/31 00:56:04;;;;;;;6.43;3.40;;;;;;;13.23;100.00;98739.53;7391087;19;20385;-74
2023/10/31 00:58:31;;;;;;;5.95;3.50;;;;;;;13.23;100.00;98739.53;7392037;19;20380;-74
2023/10/31 01:00:57;;;;;;;6.03;3.17;;;;;;;13.24;100.00;98749.16;7389914;19;20417;-74
2023/10/31 01:03:24;;;;;;;5.97;2.80;;;;;;;13.24;100.00;98751.81;7388885;19;20364;-74
2023/10/31 01:05:51;;;;;;;7.05;3.25;;;;;;;13.25;100.00;98742.75;7391789;19;20967;-74
2023/10/31 01:08:18;;;;;;;4.50;2.92;;;;;;;13.26;100.00;98744.41;7389214;19;20876;-73
2023/10/31 01:10:46;;;;;;;5.60;2.63;;;;;;;13.27;100.00;98730.03;7391798;19;20356;-74
2023/10/31 01:13:12;;;;;;;5.15;2.42;;;;;;;13.29;100.00;98730.63;7393134;19;20364;-74
2023/10/31 01:15:39;;;;;;;5.78;2.97;;;;;;;13.30;100.00;98728.75;7390631;19;20366;-74
2023/10/31 01:18:06;;;;;;;3.90;2.80;;;;;;;13.32;100.00;98724.00;7390370;19;20466;-74
2023/10/31 01:20:34;;;;;;;4.57;2.65;;;;;;;13.32;100.00;98706.16;7393505;19;20383;-74
2023/10/31 01:23:01;;;;;;;3.40;2.70;;;;;;;13.34;100.00;98709.38;7387390;19;20413;-74
2023/10/31 01:25:28;;;;;;;3.85;2.63;;;;;;;13.35;100.00;98711.00;7389686;19;20386;-74
2023/10/31 01:27:55;;;;;;;4.00;2.60;;;;;;;13.36;100.00;98709.94;7383681;19;21009;-74
2023/10/31 01:30:23;;;;;;;5.45;2.70;;;;;;;13.35;100.00;98711.00;7387337;19;20868;-74
2023/10/31 01:32:50;;;;;;;4.00;2.60;;;;;;;13.36;100.00;98696.63;7387288;19;20361;-74
2023/10/31 01:35:17;;;;;;;4.47;2.50;;;;;;;13.39;100.00;98711.34;7384559;19;20417;-74
2023/10/31 01:37:44;;;;;;;8.52;2.90;;;;;;;13.38;100.00;98705.19;7388760;19;20377;-74
2023/10/31 01:40:13;;;;;;;6.22;3.03;;;;;;;13.38;100.00;98705.19;7383551;19;20336;-74
2023/10/31 01:42:39;;;;;;;3.97;2.60;;;;;;;13.39;100.00;98700.69;7383184;19;20372;-74
2023/10/31 01:45:07;;;;;;;4.50;2.75;;;;;;;13.40;100.00;98700.44;7388552;19;20364;-74
2023/10/31 01:47:34;;;;;;;4.63;2.90;;;;;;;13.42;100.00;98685.03;7389415;19;20376;-74
2023/10/31 01:50:01;;;;;;;4.68;2.80;;;;;;;13.46;100.00;98683.47;7389964;19;20367;-74
2023/10/31 01:52:32;;;;;;;4.32;2.67;;;;;;;13.46;100.00;98683.47;7390827;19;20368;-74
2023/10/31 01:55:02;;;;;;;4.07;2.88;;;;;;;13.48;100.00;98688.56;7386021;19;20340;-74
2023/10/31 01:57:29;;;;;;;4.75;2.60;;;;;;;13.50;100.00;98675.81;7387021;19;20436;-74
2023/10/31 01:59:56;;;;;;;4.38;2.75;;;;;;;13.52;100.00;98671.06;7386411;19;20460;-74
2023/10/31 02:02:24;;;;;;;4.80;2.80;;;;;;;13.53;100.00;98663.88;7381219;19;20939;-74
2023/10/31 02:04:51;;;;;;;3.60;2.67;;;;;;;13.55;100.00;98657.25;7388824;19;20372;-74
2023/10/31 02:07:20;;;;;;;6.75;2.78;;;;;;;13.56;100.00;98655.41;7387680;19;20387;-73
2023/10/31 02:09:47;;;;;;;4.80;2.53;;;;;;;13.56;100.00;98652.75;7389992;19;20376;-73
2023/10/31 02:12:32;;;;;;;4.30;2.60;;;;;;;13.58;100.00;98653.28;7387134;19;20365;-74
2023/10/31 02:14:59;;;;;;;5.45;3.28;;;;;;;13.57;100.00;98644.47;7388508;19;20424;-74
2023/10/31 02:17:26;;;;;;;4.65;2.90;;;;;;;13.57;100.00;98655.13;7388189;19;20444;-74
2023/10/31 02:19:53;;;;;;;4.32;2.70;;;;;;;13.58;100.00;98637.28;7381659;19;20432;-73
2023/10/31 02:22:21;;;;;;;6.80;3.50;;;;;;;13.58;100.00;98642.63;7389485;19;20328;-74
2023/10/31 02:24:48;;;;;;;3.88;3.08;;;;;;;13.57;100.00;98643.69;7388341;19;20436;-74
2023/10/31 02:27:15;;;;;;;4.80;3.33;;;;;;;13.60;100.00;98643.19;7388198;19;20373;-73
2023/10/31 02:29:42;;;;;;;5.45;3.20;;;;;;;13.59;100.00;98644.25;7385906;19;20445;-74
2023/10/31 02:32:10;;;;;;;5.95;4.00;;;;;;;13.61;100.00;98650.13;7388264;19;20357;-74
2023/10/31 02:34:37;;;;;;;6.30;3.72;;;;;;;13.59;100.00;98641.59;7389763;19;20849;-73
2023/10/31 02:37:05;;;;;;;5.40;4.00;;;;;;;13.58;100.00;98647.94;7389454;19;20369;-74
2023/10/31 02:39:32;;;;;;;6.75;3.60;;;;;;;13.58;100.00;98651.44;7384296;19;20365;-74
2023/10/31 02:41:59;;;;;;;5.28;3.58;;;;;;;13.57;100.00;98644.47;7387335;19;20387;-74
2023/10/31 02:44:27;;;;;;;4.65;3.40;;;;;;;13.60;100.00;98645.84;7388584;19;20805;-74
2023/10/31 02:46:53;;;;;;;3.42;2.88;;;;;;;13.63;100.00;98642.72;7385899;19;20375;-74
2023/10/31 02:49:21;;;;;;;5.57;3.20;;;;;;;13.68;100.00;98631.31;7390008;19;20436;-74
2023/10/31 02:51:47;;;;;;;5.28;3.00;;;;;;;13.69;100.00;98638.28;7388460;19;20344;-74
2023/10/31 02:54:15;;;;;;;5.93;3.35;;;;;;;13.71;100.00;98628.97;7385252;19;20380;-74
2023/10/31 02:56:42;;;;;;;5.40;3.30;;;;;;;13.75;100.00;98629.25;7385925;19;20378;-74
2023/10/31 02:59:09;;;;;;;5.87;3.83;;;;;;;13.78;100.00;98624.25;7385789;19;20344;-74
2023/10/31 03:01:36;;;;;;;5.88;3.50;;;;;;;13.83;100.00;98626.19;7387572;19;20936;-73
2023/10/31 03:04:04;;;;;;;3.92;3.15;;;;;;;13.81;100.00;98629.09;7387197;19;20456;-73
2023/10/31 03:06:30;;;;;;;4.03;3.10;;;;;;;13.81;100.00;98637.09;7386573;19;20368;-73
2023/10/31 03:08:58;;;;;;;6.60;2.80;;;;;;;13.81;100.00;98637.09;7386815;19;20757;-73
2023/10/31 03:11:26;;;;;;;3.63;2.30;;;;;;;13.80;100.00;98638.16;7388238;19;20370;-73
2023/10/31 03:13:53;;;;;;;3.80;2.42;;;;;;;13.83;100.00;98636.84;7384536;19;20336;-73
2023/10/31 03:16:21;;;;;;;4.13;2.37;;;;;;;13.86;100.00;98631.03;7385035;19;20344;-74
2023/10/31 03:18:48;;;;;;;4.00;2.22;;;;;;;13.87;100.00;98636.09;7385635;19;20356;-74
2023/10/31 03:21:15;;;;;;;3.43;2.23;;;;;;;13.89;100.00;98632.38;7382814;19;20471;-73
2023/10/31 03:23:46;;;;;;;3.60;2.50;;;;;;;13.92;100.00;98634.56;7385955;19;20360;-73
2023/10/31 03:26:12;;;;;;;4.57;2.30;;;;;;;13.94;100.00;98635.94;7385326;19;20353;-74
2023/10/31 03:28:39;;;;;;;3.42;2.28;;;;;;;13.95;100.00;98634.06;7389129;19;20361;-74
2023/10/31 03:31:06;;;;;;;4.40;2.50;;;;;;;13.96;99.86;98631.16;7391688;19;20375;-74
2023/10/31 03:33:33;;;;;;;3.70;2.55;;;;;;;13.99;99.80;98624.53;7393415;19;20371;-74
2023/10/31 03:36:00;;;;;;;3.90;2.63;;;;;;;13.95;100.00;98629.53;7395635;19;20423;-73
2023/10/31 03:38:27;;;;;;;3.92;2.30;;;;;;;13.87;99.18;98660.09;7394544;19;20372;-74
2023/10/31 03:40:54;;;;;;;3.70;2.30;;;;;;;13.87;98.70;98637.97;7388483;19;20391;-73
2023/10/31 03:43:20;;;;;;;4.47;2.90;;;;;;;13.86;98.18;98679.00;7395125;19;20349;-74
2023/10/31 03:45:47;;;;;;;4.10;2.63;;;;;;;13.73;95.67;98648.19;7395610;19;20381;-73
2023/10/31 03:48:18;;;;;;;3.57;2.80;;;;;;;13.59;93.08;98668.22;7395442;19;20754;-74
2023/10/31 03:50:45;;;;;;;2.67;2.30;;;;;;;13.53;93.43;98656.69;7390601;19;20365;-74
2023/10/31 03:53:12;;;;;;;2.93;2.43;;;;;;;13.43;93.43;98654.69;7393110;19;20383;-74
2023/10/31 03:55:38;;;;;;;3.15;2.70;;;;;;;13.35;92.57;98657.75;7395045;19;20658;-74
2023/10/31 03:58:05;;;;;;;2.45;2.22;;;;;;;13.26;92.51;98675.16;7395277;19;20356;-73
2023/10/31 04:00:32;;;;;;;3.95;3.17;;;;;;;13.13;91.76;98678.13;7392201;19;21318;-74
2023/10/31 04:02:59;;;;;;;3.70;2.63;;;;;;;13.13;92.23;98680.78;7393340;19;20355;-74
2023/10/31 04:05:26;;;;;;;3.70;2.95;;;;;;;13.06;91.47;98687.06;7393601;19;20368;-72
2023/10/31 04:07:53;;;;;;;2.80;2.47;;;;;;;13.01;91.48;98681.66;7392659;19;20381;-73
2023/10/31 04:10:20;;;;;;;3.80;2.93;;;;;;;13.06;91.89;98684.41;7393045;19;20764;-73
2023/10/31 04:12:48;;;;;;;5.30;3.05;;;;;;;13.03;91.71;98682.25;7394388;19;20681;-73
2023/10/31 04:15:14;;;;;;;2.40;2.00;;;;;;;12.99;91.59;98713.03;7394361;19;20382;-74
2023/10/31 04:17:41;;;;;;;2.00;1.80;;;;;;;12.93;91.26;98695.38;7393006;19;20372;-73
2023/10/31 04:20:08;;;;;;;2.10;1.67;;;;;;;12.90;91.31;98716.31;7395103;19;20374;-73
2023/10/31 04:22:36;;;;;;;1.80;1.52;;;;;;;12.89;90.80;98704.06;7395968;19;20907;-74
2023/10/31 04:25:05;;;;;;;1.95;1.50;;;;;;;12.86;90.45;98708.03;7390066;19;20383;-73
2023/10/31 04:27:34;;;;;;;2.20;1.60;;;;;;;12.82;90.66;98715.66;7390625;19;20337;-74
2023/10/31 04:30:01;;;;;;;1.85;1.40;;;;;;;12.75;89.58;98725.66;7394992;19;20316;-74
2023/10/31 04:32:29;;;;;;;2.15;1.20;;;;;;;12.70;88.93;98724.72;7396152;19;20382;-74
2023/10/31 04:34:56;;;;;;;1.50;1.13;;;;;;;12.69;89.45;98753.19;7395801;19;20355;-74
2023/10/31 04:37:24;;;;;;;1.63;1.05;;;;;;;12.65;88.78;98734.22;7394024;19;20715;-73
2023/10/31 04:39:51;;;;;;;2.42;1.00;;;;;;;12.57;88.26;98731.94;7392627;19;20368;-74
2023/10/31 04:42:20;;;;;;;1.33;0.90;;;;;;;12.59;88.74;98729.84;7388550;19;20410;-73
2023/10/31 04:44:47;;;;;;;1.27;0.90;;;;;;;12.55;88.38;98718.06;7386370;19;20370;-75
2023/10/31 04:47:14;;;;;;;2.90;1.60;;;;;;;12.46;88.71;98732.78;7393258;19;20898;-73
2023/10/31 04:49:41;;;;;;;1.83;1.10;;;;;;;12.41;89.03;98736.16;7392277;19;20788;-74
2023/10/31 04:52:08;;;;;;;1.30;0.70;;;;;;;12.41;88.76;98727.34;7390413;19;20382;-73
2023/10/31 04:54:34;;;;;;;1.02;0.57;;;;;;;12.40;88.88;98737.19;7390721;19;20860;-72
2023/10/31 04:57:02;;;;;;;1.20;0.60;;;;;;;12.36;89.21;98729.91;7392226;19;20390;-73
2023/10/31 04:59:29;;;;;;;0.90;0.50;;;;;;;12.36;89.00;98735.25;7389401;19;20366;-73
2023/10/31 05:01:56;;;;;;;1.10;0.40;;;;;;;12.29;88.62;98747.88;7389476;19;20368;-73
2023/10/31 05:04:23;;;;;;;0.60;0.20;;;;;;;12.27;88.25;98747.28;7390398;19;20410;-74
2023/10/31 05:06:50;;;;;;;0.80;0.30;;;;;;;12.22;87.96;98758.63;7391181;19;20396;-73
2023/10/31 05:09:17;;;;;;;0.93;0.20;;;;;;;12.20;87.12;98760.72;7389360;19;20325;-74
2023/10/31 05:11:45;;;;;;;0.50;0.20;;;;;;;12.15;86.96;98766.69;7390438;19;20378;-74
2023/10/31 05:14:12;;;;;;;0.57;0.20;;;;;;;12.21;87.56;98770.28;7389781;19;20340;-73
2023/10/31 05:16:42;;;;;;;1.00;0.38;;;;;;;12.16;85.64;98768.31;7389524;19;20344;-73
2023/10/31 05:19:10;;;;;;;0.35;0.10;;;;;;;12.10;85.65;98789.72;7387834;19;20351;-73
2023/10/31 05:21:37;;;;;;;1.60;0.30;;;;;;;12.06;85.15;98791.22;7385173;19;20368;-73
2023/10/31 05:24:04;;;;;;;0.47;0.10;;;;;;;11.94;84.68;98775.25;7391435;19;20428;-73
2023/10/31 05:26:31;;;;;;;0.60;0.20;;;;;;;11.99;84.79;98788.69;7391433;19;20372;-73
2023/10/31 05:28:58;;;;;;;0.83;0.10;;;;;;;11.97;84.64;98796.06;7391043;19;20824;-73
2023/10/31 05:31:26;;;;;;;0.70;0.20;;;;;;;11.99;84.88;98788.69;7390466;19;20674;-72
2023/10/31 05:33:53;;;;;;;0.20;0.10;;;;;;;11.92;83.82;98787.97;7390430;19;20991;-73
2023/10/31 05:36:22;;;;;;;1.00;0.20;;;;;;;11.92;84.11;98803.91;7392907;19;20377;-73
2023/10/31 05:38:49;;;;;;;0.20;0.10;;;;;;;11.91;83.74;98786.34;7381027;19;20959;-73
2023/10/31 05:41:16;;;;;;;1.08;0.20;;;;;;;11.91;83.91;98804.97;7208198;19;3473965;-73
2023/10/31 05:43:43;;;;;;;0.60;0.20;;;;;;;11.89;83.74;98807.03;7393496;19;20879;-73
2023/10/31 05:46:10;;;;;;;0.93;0.20;;;;;;;11.85;84.17;98798.69;7391935;19;20374;-72
2023/10/31 05:48:38;;;;;;;1.35;0.20;;;;;;;11.83;84.14;98809.53;7390360;19;20376;-72
2023/10/31 05:51:16;;;;;;;1.35;0.30;;;;;;;11.84;84.61;98805.84;7392073;19;20361;-73
2023/10/31 05:53:46;;;;;;;0.90;0.20;;;;;;;11.84;84.32;98792.56;7391180;19;20352;-72
2023/10/31 05:56:15;;;;;;;0.85;0.30;;;;;;;11.86;83.83;98813.59;7386781;19;20380;-73
2023/10/31 05:58:42;;;;;;;1.55;0.40;;;;;;;11.84;84.22;98803.19;7387145;19;20368;-73
2023/10/31 06:01:09;;;;;;;1.17;0.30;;;;;;;11.82;83.82;98818.53;7385308;19;20387;-72
2023/10/31 06:03:36;;;;;;;1.17;0.35;;;;;;;11.83;83.39;98820.16;7392700;19;20361;-73
2023/10/31 06:06:04;;;;;;;1.30;0.30;;;;;;;11.88;83.89;98823.97;7390229;19;20352;-72
2023/10/31 06:08:34;;;;;;;0.80;0.30;;;;;;;11.82;83.31;98820.41;7391833;19;20364;-73
2023/10/31 06:11:03;;;;;;;0.68;0.22;;;;;;;11.83;83.18;98838.75;7389749;19;20372;-73
2023/10/31 06:13:31;;;;;;;1.15;0.38;;;;;;;11.86;83.37;98836.66;7387739;19;20364;-72
2023/10/31 06:15:58;;;;;;;1.10;0.37;;;;;;;11.80;83.35;98849.84;7386411;19;20428;-73
2023/10/31 06:18:27;;;;;;;1.20;0.30;;;;;;;11.83;83.06;98867.97;7386768;19;20703;-73
2023/10/31 06:20:54;;;;;;;2.42;0.45;;;;;;;11.84;83.12;98847.56;7389138;19;20352;-73
2023/10/31 06:23:21;;;;;;;1.30;0.47;;;;;;;11.88;83.23;98845.22;7392225;19;20407;-73
2023/10/31 06:25:48;;;;;;;1.25;0.40;;;;;;;11.89;83.75;98853.00;7383566;19;20375;-72
2023/10/31 06:28:15;;;;;;;0.88;0.40;;;;;;;11.92;83.77;98857.88;7391434;19;20360;-72
2023/10/31 06:30:42;;;;;;;1.27;0.43;;;;;;;11.95;84.27;98864.56;7390043;19;20360;-73
2023/10/31 06:33:10;;;;;;;1.55;0.60;;;;;;;11.93;83.64;98854.16;7385705;19;20389;-73
2023/10/31 06:35:37;;;;;;;1.48;0.63;;;;;;;11.93;83.39;98854.16;7392709;19;20365;-73
2023/10/31 06:38:04;;;;;;;1.55;0.60;;;;;;;11.92;83.63;98871.16;7389072;19;20428;-73
2023/10/31 06:40:31;;;;;;;2.95;0.70;;;;;;;11.91;84.06;98877.50;7388144;19;20391;-72
2023/10/31 06:42:59;;;;;;;2.85;0.90;;;;;;;11.88;83.99;98877.09;7388546;19;20885;-73
2023/10/31 06:45:26;;;;;;;2.22;1.00;;;;;;;11.92;83.97;98878.31;7387264;19;22154;-73
2023/10/31 06:47:53;;;;;;;2.70;1.00;;;;;;;11.81;84.07;98909.91;7389120;19;20352;-72
2023/10/31 06:50:20;;;;;;;3.63;1.10;;;;;;;11.80;83.99;98892.34;7391391;19;20356;-72
2023/10/31 06:52:47;;;;;;;3.15;1.05;;;;;;;11.78;84.01;98896.28;7385324;19;20351;-74
2023/10/31 06:55:15;;;;;;;2.65;1.10;;;;;;;11.81;84.29;98885.97;7389543;19;20908;-73
2023/10/31 06:57:42;;;;;;;2.70;1.27;;;;;;;11.83;84.17;98901.69;7386975;19;20442;-73
2023/10/31 07:00:11;;;;;;;3.10;1.23;;;;;;;11.86;84.51;98903.09;7390581;19;20480;-73
2023/10/31 07:02:38;;;;;;;3.10;1.10;;;;;;;11.80;83.97;98902.97;7389114;19;20399;-73
2023/10/31 07:05:05;;;;;;;2.97;1.15;;;;;;;11.80;84.47;98902.97;7392598;19;20711;-73
2023/10/31 07:07:32;;;;;;;1.77;0.90;;;;;;;11.80;84.69;98902.16;7397507;19;20868;-73
2023/10/31 07:09:59;;;;;;;3.63;1.20;;;;;;;11.83;84.88;98907.81;7392786;19;20392;-73
2023/10/31 07:12:26;;;;;;;1.98;1.15;;;;;;;11.83;84.45;98894.53;7399116;19;20865;-73
2023/10/31 07:14:53;;;;;;;2.65;1.10;;;;;;;11.82;84.76;98895.59;7397092;19;20359;-73
2023/10/31 07:17:20;;;;;;;2.85;1.10;;;;;;;11.80;84.84;98889.69;7393911;19;20360;-72
2023/10/31 07:19:47;;;;;;;3.13;0.90;;;;;;;11.84;85.02;98898.81;7396020;19;20369;-73
2023/10/31 07:22:13;;;;;;;2.15;1.00;;;;;;;11.83;84.74;98907.00;7394480;19;20408;-73
2023/10/31 07:24:41;;;;;;;2.50;1.00;;;;;;;11.87;85.23;98904.72;7397569;19;20377;-73
2023/10/31 07:27:07;;;;;;;2.78;1.00;;;;;;;11.84;85.07;98904.13;7395117;19;20352;-72
2023/10/31 07:29:35;;;;;;;2.03;1.10;;;;;;;11.88;85.14;98898.34;7398462;19;20364;-73
2023/10/31 07:32:01;;;;;;;1.90;1.00;;;;;;;11.82;84.97;98908.88;7398521;19;20751;-72
2023/10/31 07:34:29;;;;;;;2.17;1.05;;;;;;;11.84;85.01;98909.47;7392112;19;20356;-73
2023/10/31 07:36:56;;;;;;;2.80;1.10;;;;;;;11.87;85.17;98907.38;7396778;19;20885;-72
2023/10/31 07:39:23;;;;;;;2.72;1.17;;;;;;;11.84;85.11;98913.97;7398387;19;20377;-72
2023/10/31 07:41:50;;;;;;;2.23;1.00;;;;;;;11.88;85.34;98914.31;7398822;19;20693;-72
2023/10/31 07:44:17;;;;;;;2.33;1.00;;;;;;;11.91;85.26;98913.91;7400568;19;20405;-72
2023/10/31 07:46:43;;;;;;;2.20;1.00;;;;;;;11.91;85.04;98911.25;7395991;19;20336;-72
2023/10/31 07:49:10;;;;;;;2.67;0.90;;;;;;;11.89;84.87;98922.09;7399218;19;20356;-72
2023/10/31 07:51:37;;;;;;;2.88;1.02;;;;;;;11.91;85.09;98917.34;7396091;19;20369;-72
2023/10/31 07:54:04;;;;;;;2.70;0.90;;;;;;;11.91;85.43;98922.66;7397158;19;20424;-72
2023/10/31 07:56:32;;;;;;;2.37;0.80;;;;;;;11.95;85.38;98920.38;7396643;19;20352;-72
2023/10/31 07:58:59;;;;;;;2.17;0.90;;;;;;;11.95;85.18;98926.50;7398597;19;20452;-72
2023/10/31 08:01:26;;;;;;;2.78;0.85;;;;;;;11.97;85.46;98934.25;7392770;19;20376;-72
2023/10/31 08:03:53;;;;;;;2.75;0.80;;;;;;;11.95;85.37;98926.50;7396866;19;20340;-72
2023/10/31 08:06:20;;;;;;;1.30;0.60;;;;;;;12.04;85.45;98924.31;7392015;19;20389;-73
2023/10/31 08:08:47;;;;;;;1.80;0.70;;;;;;;12.04;85.43;98937.59;7391659;19;20724;-72
2023/10/31 08:11:13;;;;;;;1.60;0.80;;;;;;;12.02;85.98;98945.78;7394889;19;20444;-72
2023/10/31 08:13:40;;;;;;;2.20;0.70;;;;;;;12.04;86.09;98938.41;7393928;19;20904;-72
2023/10/31 08:16:07;;;;;;;1.95;0.63;;;;;;;12.04;86.10;98951.69;7394118;19;21078;-72
2023/10/31 08:18:35;;;;;;;1.65;0.52;;;;;;;12.01;86.48;98952.16;7393636;19;20361;-72
2023/10/31 08:21:03;;;;;;;2.28;0.75;;;;;;;12.00;86.57;98955.84;7393123;19;20351;-73
2023/10/31 08:23:29;;;;;;;1.80;0.60;;;;;;;11.93;87.14;98960.47;7391613;19;20390;-72
2023/10/31 08:25:56;;;;;;;0.85;0.40;;;;;;;11.83;87.51;98955.63;7392576;19;20367;-73
2023/10/31 08:28:23;;;;;;;1.35;0.55;;;;;;;11.92;87.24;98953.53;7391861;19;20428;-72
2023/10/31 08:30:50;;;;;;;1.98;0.60;;;;;;;11.98;87.44;98973.06;7390653;19;20361;-72
2023/10/31 08:33:17;;;;;;;1.60;0.60;;;;;;;11.94;87.12;98972.72;7396848;19;20864;-72
2023/10/31 08:35:44;;;;;;;1.42;0.45;;;;;;;11.93;87.25;98980.91;7394444;19;20369;-72
2023/10/31 08:38:10;;;;;;;2.40;0.75;;;;;;;11.95;87.20;98981.50;7392975;19;20364;-72
2023/10/31 08:40:52;;;;;;;1.20;0.50;;;;;;;11.99;86.71;98995.94;7392836;19;20372;-72
2023/10/31 08:43:19;;;;;;;1.27;0.55;;;;;;;12.06;86.49;98991.34;7388394;19;20745;-72
2023/10/31 08:45:45;;;;;;;2.00;0.80;;;;;;;12.07;86.17;98987.66;7395576;19;20399;-72
2023/10/31 08:48:12;;;;;;;2.33;0.57;;;;;;;12.10;85.73;98987.19;7394483;19;20344;-72
2023/10/31 08:50:39;;;;;;;0.93;0.43;;;;;;;12.21;85.57;98973.13;7396544;19;20365;-72
2023/10/31 08:53:06;;;;;;;1.67;0.60;;;;;;;12.31;84.30;98987.72;7392830;19;20435;-72
2023/10/31 08:55:33;;;;;;;1.33;0.60;;;;;;;12.39;84.07;98982.09;7394573;19;20431;-73
2023/10/31 08:57:59;;;;;;;1.60;0.52;;;;;;;12.46;83.08;99006.72;7394873;19;20707;-73
2023/10/31 09:00:28;;;;;;;1.00;0.45;;;;;;;12.54;82.58;99011.69;7391389;19;20451;-73
2023/10/31 09:02:55;;;;;;;0.77;0.40;;;;;;;12.60;82.02;99012.63;7390018;19;20449;-72
2023/10/31 09:05:22;;;;;;;1.00;0.50;;;;;;;12.69;82.07;99018.41;7391206;19;20337;-77
2023/10/31 09:07:49;;;;;;;1.13;0.57;;;;;;;12.65;81.00;99024.19;7395045;19;20388;-76
2023/10/31 09:10:16;;;;;;;1.13;0.50;;;;;;;12.73;81.83;99024.88;7393203;19;20888;-76
2023/10/31 09:12:43;;;;;;;1.40;0.40;;;;;;;12.79;81.44;99043.44;7383277;19;20353;-77
2023/10/31 09:15:10;;;;;;;1.53;0.50;;;;;;;12.77;80.76;99028.72;7376625;19;20425;-77
2023/10/31 09:17:37;;;;;;;3.30;0.50;;;;;;;12.79;80.93;99045.25;7378900;19;20355;-77
2023/10/31 09:20:05;;;;;;;1.20;0.47;;;;;;;12.82;80.11;99052.78;7381235;19;20372;-78
2023/10/31 09:22:32;;;;;;;1.10;0.57;;;;;;;12.87;79.90;99044.94;7388100;19;20365;-77
2023/10/31 09:24:59;;;;;;;1.55;0.45;;;;;;;12.98;80.17;99046.78;7386457;19;20373;-78
2023/10/31 09:27:26;;;;;;;1.20;0.40;;;;;;;13.02;80.12;99042.59;7391048;19;20925;-76
2023/10/31 09:29:52;;;;;;;1.00;0.47;;;;;;;13.18;79.42;99058.94;7392825;19;20461;-76
2023/10/31 09:32:19;;;;;;;0.98;0.40;;;;;;;13.21;80.11;99050.47;7389981;19;20373;-76
2023/10/31 09:34:47;;;;;;;0.85;0.40;;;;;;;13.14;79.22;99060.44;7392517;19;20720;-77
2023/10/31 09:37:13;;;;;;;1.70;0.40;;;;;;;12.98;79.33;99073.38;7392532;19;20722;-78
2023/10/31 09:39:40;;;;;;;1.02;0.40;;;;;;;12.88;80.11;99082.97;7390614;19;20432;-76
2023/10/31 09:42:07;;;;;;;1.20;0.43;;;;;;;12.77;80.93;99085.41;7389909;19;20872;-75
2023/10/31 09:44:35;;;;;;;1.17;0.63;;;;;;;12.73;81.81;99091.41;7392993;19;20352;-76
2023/10/31 09:47:02;;;;;;;1.60;0.50;;;;;;;12.63;81.97;99102.63;7392696;19;20378;-76
2023/10/31 09:49:29;;;;;;;1.20;0.30;;;;;;;12.59;82.51;99096.94;7393535;19;20357;-76
2023/10/31 09:51:56;;;;;;;1.17;0.40;;;;;;;12.49;82.20;99099.31;7390909;19;20385;-76
2023/10/31 09:54:26;;;;;;;1.42;0.38;;;;;;;12.44;83.03;99101.88;7384206;19;21227;-76
2023/10/31 09:56:54;;;;;;;1.67;0.40;;;;;;;12.36;82.69;99112.81;7388146;19;20374;-76
2023/10/31 09:59:21;;;;;;;0.97;0.30;;;;;;;12.33;83.13;99124.72;7391972;19;20394;-76
2023/10/31 10:01:47;;;;;;;0.60;0.28;;;;;;;12.26;82.54;99145.25;7390434;19;20369;-76
2023/10/31 10:04:17;;;;;;;1.77;0.30;;;;;;;12.20;83.97;99133.69;7390992;19;20452;-76
2023/10/31 10:07:16;;;;;;;0.50;0.20;;;;;;;12.09;83.51;99134.44;7391794;19;20355;-77
2023/10/31 10:09:44;;;;;;;1.10;0.20;;;;;;;12.06;82.54;99150.81;7391724;19;20699;-76
2023/10/31 10:12:16;;;;;;;0.93;0.40;;;;;;;12.14;83.36;99142.53;7385529;19;20773;-76
2023/10/31 10:14:46;;;;;;;0.73;0.30;;;;;;;12.18;82.87;99148.22;7388636;19;20361;-76
2023/10/31 10:17:20;;;;;;;1.13;0.30;;;;;;;12.20;83.17;99154.94;7390167;19;20352;-76
2023/10/31 10:19:47;;;;;;;1.10;0.40;;;;;;;12.15;80.93;99161.94;7387836;19;20364;-75
2023/10/31 10:22:14;;;;;;;1.63;0.80;;;;;;;12.28;82.18;99158.31;7391248;19;20368;-75
2023/10/31 10:24:42;;;;;;;1.90;0.40;;;;;;;12.36;82.33;99156.16;7391499;19;20348;-76
2023/10/31 10:27:09;;;;;;;0.63;0.20;;;;;;;12.39;80.99;99161.06;7390514;19;20365;-76
2023/10/31 10:29:38;;;;;;;0.70;0.20;;;;;;;12.48;80.70;99169.53;7389710;19;20885;-77
2023/10/31 10:32:08;;;;;;;1.30;0.70;;;;;;;12.51;79.97;99173.59;7386902;19;20364;-76
2023/10/31 10:34:35;;;;;;;0.43;0.20;;;;;;;12.53;80.26;99176.81;7388399;19;20368;-75
2023/10/31 10:37:05;;;;;;;0.30;0.15;;;;;;;12.49;80.17;99175.66;7388036;19;20356;-79
2023/10/31 10:39:33;;;;;;;0.60;0.30;;;;;;;12.53;80.02;99177.63;7401060;19;20368;-79
2023/10/31 10:42:01;;;;;;;0.95;0.30;;;;;;;12.62;80.30;99194.94;7398742;19;20364;-81
2023/10/31 10:44:41;;;;;;;1.30;0.32;;;;;;;12.67;79.76;99183.59;7404211;19;20357;-79
2023/10/31 10:47:08;;;;;;;1.17;0.30;;;;;;;12.72;79.62;99180.25;7404100;19;20381;-80
2023/10/31 10:49:36;;;;;;;0.68;0.30;;;;;;;12.78;79.82;99184.69;7399153;19;20723;-79
2023/10/31 10:52:16;;;;;;;1.33;0.40;;;;;;;12.90;79.39;99187.34;7397234;19;20344;-78
2023/10/31 10:54:46;;;;;;;3.45;0.45;;;;;;;12.93;79.18;99181.59;7398820;19;20336;-77
2023/10/31 10:57:30;;;;;;;0.70;0.30;;;;;;;12.93;79.38;99187.72;7398572;19;20372;-78
2023/10/31 11:00:03;;;;;;;1.10;0.30;;;;;;;12.97;79.31;99194.22;7397133;19;20332;-79
2023/10/31 11:02:32;;;;;;;1.20;0.50;;;;;;;13.05;79.25;99195.75;7398990;19;20378;-79
2023/10/31 11:05:00;;;;;;;1.27;0.38;;;;;;;13.12;79.00;99190.31;7399242;19;20381;-79
2023/10/31 11:07:29;;;;;;;0.65;0.30;;;;;;;13.17;79.04;99199.22;7396955;19;20376;-78
2023/10/31 11:10:01;;;;;;;1.33;0.38;;;;;;;13.16;78.28;99244.75;7398698;19;20360;-82
2023/10/31 11:12:32;;;;;;;1.20;0.40;;;;;;;13.09;78.93;99217.38;7402375;19;20735;-78
2023/10/31 11:15:00;;;;;;;0.63;0.30;;;;;;;13.06;79.25;99214.16;7403424;19;20665;-79
2023/10/31 11:17:31;;;;;;;1.73;0.40;;;;;;;13.08;79.77;99205.94;7402858;19;20357;-77
2023/10/31 11:19:59;;;;;;;1.27;0.35;;;;;;;13.12;79.55;99206.31;7399814;19;20382;-78
2023/10/31 11:22:37;;;;;;;1.10;0.30;;;;;;;13.13;79.10;99245.19;7395878;19;20420;-79
2023/10/31 11:25:05;;;;;;;1.10;0.50;;;;;;;13.17;79.02;99220.53;7393467;19;20439;-78
2023/10/31 11:27:37;;;;;;;2.10;0.45;;;;;;;13.20;79.41;99208.66;7400361;19;20362;-79
2023/10/31 11:30:20;;;;;;;1.77;0.50;;;;;;;13.24;79.45;99225.78;7398156;19;20356;-78
2023/10/31 11:32:54;;;;;;;1.13;0.38;;;;;;;13.11;79.36;99220.63;7399317;19;20840;-78
2023/10/31 11:35:23;;;;;;;1.23;0.50;;;;;;;13.14;79.68;99226.31;7398609;19;20352;-78